sensor_id;sensor_type;location;lat;lon;timestamp;P1;durP1;ratioP1;P2;durP2;ratioP2
60100;SDS011;45978;53.646;55.930;2022-09-11T00:00:47;2.42;;;2.22;;
60100;SDS011;45978;53.646;55.930;2022-09-11T00:01:49;2.13;;;2.03;;
60100;SDS011;45978;53.646;55.930;2022-09-11T00:02:50;3.03;;;2.13;;
60100;SDS011;45978;53.646;55.930;2022-09-11T00:03:52;2.47;;;2.28;;
60100;SDS011;45978;53.646;55.930;2022-09-11T00:04:54;2.83;;;1.95;;
60100;SDS011;45978;53.646;55.930;2022-09-11T00:06:00;3.53;;;2.10;;
60100;SDS011;45978;53.646;55.930;2022-09-11T00:07:02;2.28;;;2.08;;
60100;SDS011;45978;53.646;55.930;2022-09-11T00:08:05;2.00;;;1.80;;
60100;SDS011;45978;53.646;55.930;2022-09-11T00:09:11;2.58;;;2.38;;
60100;SDS011;45978;53.646;55.930;2022-09-11T00:10:13;2.03;;;1.92;;
60100;SDS011;45978;53.646;55.930;2022-09-11T00:11:15;2.22;;;2.10;;
60100;SDS011;45978;53.646;55.930;2022-09-11T00:12:19;2.40;;;2.20;;
60100;SDS011;45978;53.646;55.930;2022-09-11T00:13:22;2.63;;;2.38;;
60100;SDS011;45978;53.646;55.930;2022-09-11T00:14:23;2.33;;;2.10;;
60100;SDS011;45978;53.646;55.930;2022-09-11T00:15:26;2.30;;;2.10;;
60100;SDS011;45978;53.646;55.930;2022-09-11T00:16:29;5.20;;;2.40;;
60100;SDS011;45978;53.646;55.930;2022-09-11T00:17:34;2.33;;;2.05;;
60100;SDS011;45978;53.646;55.930;2022-09-11T00:18:38;2.50;;;2.30;;
60100;SDS011;45978;53.646;55.930;2022-09-11T00:19:39;2.55;;;2.35;;
60100;SDS011;45978;53.646;55.930;2022-09-11T00:20:49;2.22;;;2.03;;
60100;SDS011;45978;53.646;55.930;2022-09-11T00:21:53;2.20;;;1.90;;
60100;SDS011;45978;53.646;55.930;2022-09-11T00:22:56;2.10;;;1.90;;
60100;SDS011;45978;53.646;55.930;2022-09-11T00:24:02;2.28;;;2.10;;
60100;SDS011;45978;53.646;55.930;2022-09-11T00:25:04;2.13;;;2.03;;
60100;SDS011;45978;53.646;55.930;2022-09-11T00:26:05;2.20;;;2.00;;
60100;SDS011;45978;53.646;55.930;2022-09-11T00:27:06;4.28;;;2.10;;
60100;SDS011;45978;53.646;55.930;2022-09-11T00:28:12;2.60;;;2.00;;
60100;SDS011;45978;53.646;55.930;2022-09-11T00:29:15;3.75;;;1.92;;
60100;SDS011;45978;53.646;55.930;2022-09-11T00:30:17;2.50;;;2.30;;
60100;SDS011;45978;53.646;55.930;2022-09-11T00:31:21;2.45;;;2.25;;
60100;SDS011;45978;53.646;55.930;2022-09-11T00:32:24;2.40;;;2.20;;
60100;SDS011;45978;53.646;55.930;2022-09-11T00:33:25;2.33;;;2.13;;
60100;SDS011;45978;53.646;55.930;2022-09-11T00:34:28;2.75;;;2.20;;
60100;SDS011;45978;53.646;55.930;2022-09-11T00:35:29;6.78;;;2.38;;
60100;SDS011;45978;53.646;55.930;2022-09-11T00:36:30;2.90;;;2.15;;
60100;SDS011;45978;53.646;55.930;2022-09-11T00:37:32;2.00;;;1.90;;
60100;SDS011;45978;53.646;55.930;2022-09-11T00:38:35;3.13;;;1.90;;
60100;SDS011;45978;53.646;55.930;2022-09-11T00:39:37;5.95;;;2.10;;
60100;SDS011;45978;53.646;55.930;2022-09-11T00:40:44;2.15;;;2.00;;
60100;SDS011;45978;53.646;55.930;2022-09-11T00:41:48;1.85;;;1.75;;
60100;SDS011;45978;53.646;55.930;2022-09-11T00:42:53;2.28;;;2.08;;
60100;SDS011;45978;53.646;55.930;2022-09-11T00:45:04;2.03;;;1.92;;
60100;SDS011;45978;53.646;55.930;2022-09-11T00:46:07;8.45;;;2.63;;
60100;SDS011;45978;53.646;55.930;2022-09-11T00:47:10;2.25;;;2.10;;
60100;SDS011;45978;53.646;55.930;2022-09-11T00:48:18;2.45;;;2.25;;
60100;SDS011;45978;53.646;55.930;2022-09-11T00:49:28;2.03;;;1.92;;
60100;SDS011;45978;53.646;55.930;2022-09-11T00:50:32;2.92;;;2.15;;
60100;SDS011;45978;53.646;55.930;2022-09-11T00:51:33;2.20;;;2.00;;
60100;SDS011;45978;53.646;55.930;2022-09-11T00:52:38;2.20;;;2.10;;
60100;SDS011;45978;53.646;55.930;2022-09-11T00:53:49;2.95;;;2.10;;
60100;SDS011;45978;53.646;55.930;2022-09-11T00:54:53;2.00;;;1.90;;
60100;SDS011;45978;53.646;55.930;2022-09-11T00:56:06;2.38;;;2.17;;
60100;SDS011;45978;53.646;55.930;2022-09-11T00:57:09;2.08;;;1.98;;
60100;SDS011;45978;53.646;55.930;2022-09-11T00:58:13;2.75;;;2.10;;
60100;SDS011;45978;53.646;55.930;2022-09-11T00:59:18;2.90;;;2.20;;
60100;SDS011;45978;53.646;55.930;2022-09-11T01:00:27;3.70;;;2.00;;
60100;SDS011;45978;53.646;55.930;2022-09-11T01:01:29;2.25;;;2.00;;
60100;SDS011;45978;53.646;55.930;2022-09-11T01:02:33;3.55;;;2.20;;
60100;SDS011;45978;53.646;55.930;2022-09-11T01:03:36;2.10;;;2.00;;
60100;SDS011;45978;53.646;55.930;2022-09-11T01:04:39;4.50;;;1.95;;
60100;SDS011;45978;53.646;55.930;2022-09-11T01:05:40;2.45;;;2.08;;
60100;SDS011;45978;53.646;55.930;2022-09-11T01:06:44;2.88;;;2.10;;
60100;SDS011;45978;53.646;55.930;2022-09-11T01:07:46;3.03;;;2.30;;
60100;SDS011;45978;53.646;55.930;2022-09-11T01:08:50;2.20;;;2.00;;
60100;SDS011;45978;53.646;55.930;2022-09-11T01:09:52;3.10;;;2.15;;
60100;SDS011;45978;53.646;55.930;2022-09-11T01:16:47;2.30;;;2.10;;
60100;SDS011;45978;53.646;55.930;2022-09-11T01:18:08;5.57;;;2.22;;
60100;SDS011;45978;53.646;55.930;2022-09-11T01:19:29;2.80;;;2.50;;
60100;SDS011;45978;53.646;55.930;2022-09-11T01:27:41;2.65;;;2.30;;
60100;SDS011;45978;53.646;55.930;2022-09-11T01:30:18;2.60;;;2.40;;
60100;SDS011;45978;53.646;55.930;2022-09-11T01:32:23;4.10;;;2.22;;
60100;SDS011;45978;53.646;55.930;2022-09-11T01:33:29;2.40;;;2.15;;
60100;SDS011;45978;53.646;55.930;2022-09-11T01:34:48;2.42;;;2.22;;
60100;SDS011;45978;53.646;55.930;2022-09-11T01:36:07;2.65;;;2.30;;
60100;SDS011;45978;53.646;55.930;2022-09-11T01:37:23;5.03;;;2.05;;
60100;SDS011;45978;53.646;55.930;2022-09-11T01:39:43;7.55;;;2.70;;
60100;SDS011;45978;53.646;55.930;2022-09-11T01:40:55;7.60;;;6.72;;
60100;SDS011;45978;53.646;55.930;2022-09-11T01:42:06;6.60;;;4.47;;
60100;SDS011;45978;53.646;55.930;2022-09-11T01:43:15;3.10;;;2.20;;
60100;SDS011;45978;53.646;55.930;2022-09-11T01:44:23;4.60;;;2.35;;
60100;SDS011;45978;53.646;55.930;2022-09-11T01:45:28;3.67;;;2.08;;
60100;SDS011;45978;53.646;55.930;2022-09-11T01:46:37;4.07;;;2.40;;
60100;SDS011;45978;53.646;55.930;2022-09-11T01:47:42;5.10;;;2.40;;
60100;SDS011;45978;53.646;55.930;2022-09-11T01:48:47;4.50;;;2.45;;
60100;SDS011;45978;53.646;55.930;2022-09-11T01:50:07;5.30;;;2.30;;
60100;SDS011;45978;53.646;55.930;2022-09-11T01:51:23;2.60;;;2.00;;
60100;SDS011;45978;53.646;55.930;2022-09-11T01:52:31;2.40;;;2.20;;
60100;SDS011;45978;53.646;55.930;2022-09-11T01:53:38;2.88;;;2.20;;
60100;SDS011;45978;53.646;55.930;2022-09-11T01:54:43;2.70;;;2.17;;
60100;SDS011;45978;53.646;55.930;2022-09-11T01:56:25;2.55;;;2.35;;
60100;SDS011;45978;53.646;55.930;2022-09-11T01:57:43;4.65;;;2.45;;
60100;SDS011;45978;53.646;55.930;2022-09-11T01:58:53;4.22;;;2.50;;
60100;SDS011;45978;53.646;55.930;2022-09-11T02:00:00;3.15;;;2.55;;
60100;SDS011;45978;53.646;55.930;2022-09-11T02:01:18;4.15;;;2.55;;
60100;SDS011;45978;53.646;55.930;2022-09-11T02:02:24;2.63;;;2.42;;
60100;SDS011;45978;53.646;55.930;2022-09-11T02:04:13;3.60;;;2.33;;
60100;SDS011;45978;53.646;55.930;2022-09-11T02:05:15;5.55;;;2.30;;
60100;SDS011;45978;53.646;55.930;2022-09-11T02:06:25;5.03;;;2.50;;
60100;SDS011;45978;53.646;55.930;2022-09-11T02:07:35;2.53;;;2.33;;
60100;SDS011;45978;53.646;55.930;2022-09-11T02:09:56;2.63;;;2.42;;
60100;SDS011;45978;53.646;55.930;2022-09-11T02:11:07;3.08;;;2.53;;
60100;SDS011;45978;53.646;55.930;2022-09-11T02:12:12;5.40;;;2.40;;
60100;SDS011;45978;53.646;55.930;2022-09-11T02:13:24;2.40;;;2.20;;
60100;SDS011;45978;53.646;55.930;2022-09-11T02:14:37;4.88;;;2.45;;
60100;SDS011;45978;53.646;55.930;2022-09-11T02:15:49;8.82;;;2.80;;
60100;SDS011;45978;53.646;55.930;2022-09-11T02:18:25;3.30;;;2.47;;
60100;SDS011;45978;53.646;55.930;2022-09-11T02:19:39;3.83;;;2.17;;
60100;SDS011;45978;53.646;55.930;2022-09-11T02:20:41;3.65;;;2.80;;
60100;SDS011;45978;53.646;55.930;2022-09-11T02:21:45;3.35;;;2.47;;
60100;SDS011;45978;53.646;55.930;2022-09-11T02:22:47;3.92;;;3.00;;
60100;SDS011;45978;53.646;55.930;2022-09-11T02:23:49;2.95;;;2.45;;
60100;SDS011;45978;53.646;55.930;2022-09-11T02:24:51;2.63;;;2.42;;
60100;SDS011;45978;53.646;55.930;2022-09-11T02:25:52;23.05;;;17.35;;
60100;SDS011;45978;53.646;55.930;2022-09-11T02:26:57;50.70;;;33.47;;
60100;SDS011;45978;53.646;55.930;2022-09-11T02:28:04;28.02;;;21.23;;
60100;SDS011;45978;53.646;55.930;2022-09-11T02:29:06;6.68;;;4.28;;
60100;SDS011;45978;53.646;55.930;2022-09-11T02:30:09;4.03;;;3.00;;
60100;SDS011;45978;53.646;55.930;2022-09-11T02:31:12;4.95;;;2.55;;
60100;SDS011;45978;53.646;55.930;2022-09-11T02:32:13;4.50;;;2.70;;
60100;SDS011;45978;53.646;55.930;2022-09-11T02:33:29;4.35;;;3.15;;
60100;SDS011;45978;53.646;55.930;2022-09-11T02:34:39;3.55;;;2.80;;
60100;SDS011;45978;53.646;55.930;2022-09-11T02:35:45;4.20;;;2.78;;
60100;SDS011;45978;53.646;55.930;2022-09-11T02:38:22;2.78;;;2.58;;
60100;SDS011;45978;53.646;55.930;2022-09-11T02:39:39;10.40;;;3.40;;
60100;SDS011;45978;53.646;55.930;2022-09-11T02:41:23;4.18;;;2.80;;
60100;SDS011;45978;53.646;55.930;2022-09-11T02:42:32;5.78;;;2.67;;
60100;SDS011;45978;53.646;55.930;2022-09-11T02:58:43;6.97;;;2.90;;
60100;SDS011;45978;53.646;55.930;2022-09-11T02:59:58;3.83;;;2.70;;
60100;SDS011;45978;53.646;55.930;2022-09-11T03:01:02;4.78;;;2.60;;
60100;SDS011;45978;53.646;55.930;2022-09-11T03:02:08;4.93;;;2.88;;
60100;SDS011;45978;53.646;55.930;2022-09-11T03:03:13;3.83;;;2.92;;
60100;SDS011;45978;53.646;55.930;2022-09-11T03:04:15;4.82;;;2.83;;
60100;SDS011;45978;53.646;55.930;2022-09-11T03:05:19;5.60;;;3.00;;
60100;SDS011;45978;53.646;55.930;2022-09-11T03:06:22;5.35;;;2.70;;
60100;SDS011;45978;53.646;55.930;2022-09-11T03:07:25;4.00;;;2.67;;
60100;SDS011;45978;53.646;55.930;2022-09-11T03:08:26;2.78;;;2.58;;
60100;SDS011;45978;53.646;55.930;2022-09-11T03:09:28;4.28;;;2.70;;
60100;SDS011;45978;53.646;55.930;2022-09-11T03:10:34;9.35;;;2.95;;
60100;SDS011;45978;53.646;55.930;2022-09-11T03:11:35;3.35;;;3.05;;
60100;SDS011;45978;53.646;55.930;2022-09-11T03:12:37;3.33;;;2.58;;
60100;SDS011;45978;53.646;55.930;2022-09-11T03:13:39;7.70;;;2.75;;
60100;SDS011;45978;53.646;55.930;2022-09-11T03:14:42;4.57;;;2.67;;
60100;SDS011;45978;53.646;55.930;2022-09-11T03:15:47;3.80;;;2.67;;
60100;SDS011;45978;53.646;55.930;2022-09-11T03:16:50;2.83;;;2.55;;
60100;SDS011;45978;53.646;55.930;2022-09-11T03:17:53;8.20;;;3.10;;
60100;SDS011;45978;53.646;55.930;2022-09-11T03:18:54;6.35;;;2.78;;
60100;SDS011;45978;53.646;55.930;2022-09-11T03:19:56;4.38;;;3.10;;
60100;SDS011;45978;53.646;55.930;2022-09-11T03:20:58;5.47;;;3.63;;
60100;SDS011;45978;53.646;55.930;2022-09-11T03:22:00;3.90;;;3.50;;
60100;SDS011;45978;53.646;55.930;2022-09-11T03:23:02;8.25;;;3.45;;
60100;SDS011;45978;53.646;55.930;2022-09-11T03:24:11;6.13;;;3.13;;
60100;SDS011;45978;53.646;55.930;2022-09-11T03:25:13;3.45;;;2.97;;
60100;SDS011;45978;53.646;55.930;2022-09-11T03:26:16;4.22;;;3.00;;
60100;SDS011;45978;53.646;55.930;2022-09-11T03:27:17;3.33;;;2.92;;
60100;SDS011;45978;53.646;55.930;2022-09-11T03:28:19;7.00;;;2.90;;
60100;SDS011;45978;53.646;55.930;2022-09-11T03:29:22;9.25;;;3.03;;
60100;SDS011;45978;53.646;55.930;2022-09-11T03:30:28;3.65;;;3.20;;
60100;SDS011;45978;53.646;55.930;2022-09-11T03:31:31;6.00;;;3.42;;
60100;SDS011;45978;53.646;55.930;2022-09-11T03:32:33;7.05;;;3.33;;
60100;SDS011;45978;53.646;55.930;2022-09-11T03:33:34;6.43;;;3.20;;
60100;SDS011;45978;53.646;55.930;2022-09-11T03:34:35;4.60;;;3.50;;
60100;SDS011;45978;53.646;55.930;2022-09-11T03:35:38;4.05;;;3.22;;
60100;SDS011;45978;53.646;55.930;2022-09-11T03:36:40;4.43;;;3.05;;
60100;SDS011;45978;53.646;55.930;2022-09-11T03:37:41;3.40;;;3.05;;
60100;SDS011;45978;53.646;55.930;2022-09-11T03:38:44;3.47;;;2.60;;
60100;SDS011;45978;53.646;55.930;2022-09-11T03:39:45;8.68;;;3.53;;
60100;SDS011;45978;53.646;55.930;2022-09-11T03:40:47;5.10;;;3.05;;
60100;SDS011;45978;53.646;55.930;2022-09-11T03:41:49;4.03;;;2.78;;
60100;SDS011;45978;53.646;55.930;2022-09-11T03:42:51;3.78;;;3.10;;
60100;SDS011;45978;53.646;55.930;2022-09-11T03:43:53;6.03;;;3.20;;
60100;SDS011;45978;53.646;55.930;2022-09-11T03:44:55;3.65;;;2.78;;
60100;SDS011;45978;53.646;55.930;2022-09-11T03:45:56;7.43;;;2.80;;
60100;SDS011;45978;53.646;55.930;2022-09-11T03:46:57;4.43;;;2.92;;
60100;SDS011;45978;53.646;55.930;2022-09-11T03:48:00;3.72;;;2.55;;
60100;SDS011;45978;53.646;55.930;2022-09-11T03:49:01;3.42;;;2.70;;
60100;SDS011;45978;53.646;55.930;2022-09-11T03:50:04;3.22;;;2.80;;
60100;SDS011;45978;53.646;55.930;2022-09-11T03:51:09;3.92;;;2.53;;
60100;SDS011;45978;53.646;55.930;2022-09-11T03:52:10;4.53;;;2.70;;
60100;SDS011;45978;53.646;55.930;2022-09-11T03:53:11;3.65;;;2.38;;
60100;SDS011;45978;53.646;55.930;2022-09-11T03:54:13;5.93;;;2.45;;
60100;SDS011;45978;53.646;55.930;2022-09-11T03:55:19;3.88;;;2.35;;
60100;SDS011;45978;53.646;55.930;2022-09-11T03:56:23;3.33;;;2.40;;
60100;SDS011;45978;53.646;55.930;2022-09-11T03:57:25;2.72;;;2.53;;
60100;SDS011;45978;53.646;55.930;2022-09-11T03:58:27;5.55;;;2.75;;
60100;SDS011;45978;53.646;55.930;2022-09-11T03:59:29;4.72;;;2.55;;
60100;SDS011;45978;53.646;55.930;2022-09-11T04:00:31;2.50;;;2.33;;
60100;SDS011;45978;53.646;55.930;2022-09-11T04:01:33;5.35;;;3.00;;
60100;SDS011;45978;53.646;55.930;2022-09-11T04:02:35;3.60;;;2.60;;
60100;SDS011;45978;53.646;55.930;2022-09-11T04:03:38;5.25;;;2.53;;
60100;SDS011;45978;53.646;55.930;2022-09-11T04:04:41;3.42;;;2.67;;
60100;SDS011;45978;53.646;55.930;2022-09-11T04:05:43;7.00;;;2.40;;
60100;SDS011;45978;53.646;55.930;2022-09-11T04:06:57;6.43;;;2.40;;
60100;SDS011;45978;53.646;55.930;2022-09-11T04:07:59;4.07;;;2.70;;
60100;SDS011;45978;53.646;55.930;2022-09-11T04:09:02;6.07;;;2.45;;
60100;SDS011;45978;53.646;55.930;2022-09-11T04:10:05;2.50;;;2.30;;
60100;SDS011;45978;53.646;55.930;2022-09-11T04:11:16;2.33;;;2.15;;
60100;SDS011;45978;53.646;55.930;2022-09-11T04:12:26;5.13;;;2.60;;
60100;SDS011;45978;53.646;55.930;2022-09-11T04:13:29;3.50;;;2.10;;
60100;SDS011;45978;53.646;55.930;2022-09-11T04:14:35;2.60;;;2.20;;
60100;SDS011;45978;53.646;55.930;2022-09-11T04:15:37;3.22;;;2.42;;
60100;SDS011;45978;53.646;55.930;2022-09-11T04:16:41;2.67;;;2.47;;
60100;SDS011;45978;53.646;55.930;2022-09-11T04:17:43;2.45;;;2.25;;
60100;SDS011;45978;53.646;55.930;2022-09-11T04:18:45;3.00;;;2.53;;
60100;SDS011;45978;53.646;55.930;2022-09-11T04:19:47;3.00;;;2.50;;
60100;SDS011;45978;53.646;55.930;2022-09-11T04:20:48;3.03;;;2.40;;
60100;SDS011;45978;53.646;55.930;2022-09-11T04:21:49;3.05;;;2.40;;
60100;SDS011;45978;53.646;55.930;2022-09-11T04:22:51;2.63;;;2.42;;
60100;SDS011;45978;53.646;55.930;2022-09-11T04:23:54;2.70;;;2.35;;
60100;SDS011;45978;53.646;55.930;2022-09-11T04:25:01;2.80;;;2.30;;
60100;SDS011;45978;53.646;55.930;2022-09-11T04:26:08;2.70;;;2.50;;
60100;SDS011;45978;53.646;55.930;2022-09-11T04:27:18;2.67;;;2.47;;
60100;SDS011;45978;53.646;55.930;2022-09-11T04:28:23;2.70;;;2.50;;
60100;SDS011;45978;53.646;55.930;2022-09-11T04:29:24;3.17;;;2.50;;
60100;SDS011;45978;53.646;55.930;2022-09-11T04:30:28;2.47;;;2.28;;
60100;SDS011;45978;53.646;55.930;2022-09-11T04:31:30;2.65;;;2.30;;
60100;SDS011;45978;53.646;55.930;2022-09-11T04:32:34;5.05;;;2.67;;
60100;SDS011;45978;53.646;55.930;2022-09-11T04:33:36;2.90;;;2.47;;
60100;SDS011;45978;53.646;55.930;2022-09-11T04:34:39;2.78;;;2.50;;
60100;SDS011;45978;53.646;55.930;2022-09-11T04:35:42;2.75;;;2.50;;
60100;SDS011;45978;53.646;55.930;2022-09-11T04:36:44;5.47;;;2.78;;
60100;SDS011;45978;53.646;55.930;2022-09-11T04:37:48;2.85;;;2.65;;
60100;SDS011;45978;53.646;55.930;2022-09-11T04:38:52;2.67;;;2.22;;
60100;SDS011;45978;53.646;55.930;2022-09-11T04:39:56;3.10;;;2.30;;
60100;SDS011;45978;53.646;55.930;2022-09-11T04:41:00;2.58;;;2.38;;
60100;SDS011;45978;53.646;55.930;2022-09-11T04:42:03;2.00;;;1.90;;
60100;SDS011;45978;53.646;55.930;2022-09-11T04:43:06;2.58;;;2.38;;
60100;SDS011;45978;53.646;55.930;2022-09-11T04:44:09;2.42;;;2.17;;
60100;SDS011;45978;53.646;55.930;2022-09-11T04:45:15;2.60;;;2.20;;
60100;SDS011;45978;53.646;55.930;2022-09-11T04:46:18;4.78;;;2.67;;
60100;SDS011;45978;53.646;55.930;2022-09-11T04:47:20;2.45;;;2.25;;
60100;SDS011;45978;53.646;55.930;2022-09-11T04:48:21;4.13;;;2.30;;
60100;SDS011;45978;53.646;55.930;2022-09-11T04:49:23;2.10;;;2.00;;
60100;SDS011;45978;53.646;55.930;2022-09-11T04:50:26;4.78;;;2.70;;
60100;SDS011;45978;53.646;55.930;2022-09-11T04:51:46;5.05;;;2.33;;
60100;SDS011;45978;53.646;55.930;2022-09-11T04:52:50;3.67;;;2.88;;
60100;SDS011;45978;53.646;55.930;2022-09-11T04:53:52;5.00;;;2.40;;
60100;SDS011;45978;53.646;55.930;2022-09-11T04:54:58;2.35;;;2.25;;
60100;SDS011;45978;53.646;55.930;2022-09-11T04:56:02;5.95;;;2.75;;
60100;SDS011;45978;53.646;55.930;2022-09-11T04:57:17;4.00;;;2.60;;
60100;SDS011;45978;53.646;55.930;2022-09-11T04:58:21;2.80;;;2.60;;
60100;SDS011;45978;53.646;55.930;2022-09-11T04:59:22;7.53;;;2.60;;
60100;SDS011;45978;53.646;55.930;2022-09-11T05:00:29;4.50;;;3.30;;
60100;SDS011;45978;53.646;55.930;2022-09-11T05:01:32;4.55;;;3.35;;
60100;SDS011;45978;53.646;55.930;2022-09-11T05:02:33;4.95;;;4.10;;
60100;SDS011;45978;53.646;55.930;2022-09-11T05:03:37;3.15;;;2.95;;
60100;SDS011;45978;53.646;55.930;2022-09-11T05:04:40;3.25;;;2.72;;
60100;SDS011;45978;53.646;55.930;2022-09-11T05:05:43;4.05;;;3.05;;
60100;SDS011;45978;53.646;55.930;2022-09-11T05:06:45;3.92;;;2.60;;
60100;SDS011;45978;53.646;55.930;2022-09-11T05:07:51;3.72;;;3.15;;
60100;SDS011;45978;53.646;55.930;2022-09-11T05:08:52;2.00;;;1.80;;
60100;SDS011;45978;53.646;55.930;2022-09-11T05:09:56;2.85;;;1.90;;
60100;SDS011;45978;53.646;55.930;2022-09-11T05:10:58;1.40;;;1.30;;
60100;SDS011;45978;53.646;55.930;2022-09-11T05:12:00;2.88;;;1.40;;
60100;SDS011;45978;53.646;55.930;2022-09-11T05:13:05;4.88;;;1.60;;
60100;SDS011;45978;53.646;55.930;2022-09-11T05:14:08;4.65;;;2.15;;
60100;SDS011;45978;53.646;55.930;2022-09-11T05:15:12;3.00;;;2.17;;
60100;SDS011;45978;53.646;55.930;2022-09-11T05:16:14;4.70;;;3.35;;
60100;SDS011;45978;53.646;55.930;2022-09-11T05:17:17;9.60;;;3.53;;
60100;SDS011;45978;53.646;55.930;2022-09-11T05:18:18;7.43;;;3.88;;
60100;SDS011;45978;53.646;55.930;2022-09-11T05:19:22;4.53;;;2.88;;
60100;SDS011;45978;53.646;55.930;2022-09-11T05:20:25;4.65;;;3.50;;
60100;SDS011;45978;53.646;55.930;2022-09-11T05:21:26;3.05;;;2.65;;
60100;SDS011;45978;53.646;55.930;2022-09-11T05:22:29;3.67;;;2.75;;
60100;SDS011;45978;53.646;55.930;2022-09-11T05:23:34;3.20;;;2.90;;
60100;SDS011;45978;53.646;55.930;2022-09-11T05:24:37;3.13;;;2.60;;
60100;SDS011;45978;53.646;55.930;2022-09-11T05:25:40;2.38;;;2.17;;
60100;SDS011;45978;53.646;55.930;2022-09-11T05:26:43;7.97;;;2.40;;
60100;SDS011;45978;53.646;55.930;2022-09-11T05:27:46;2.38;;;2.10;;
60100;SDS011;45978;53.646;55.930;2022-09-11T05:28:52;2.63;;;1.98;;
60100;SDS011;45978;53.646;55.930;2022-09-11T05:29:58;6.90;;;3.88;;
60100;SDS011;45978;53.646;55.930;2022-09-11T05:31:09;2.53;;;2.08;;
60100;SDS011;45978;53.646;55.930;2022-09-11T05:32:12;5.93;;;1.95;;
60100;SDS011;45978;53.646;55.930;2022-09-11T05:33:15;2.88;;;1.67;;
60100;SDS011;45978;53.646;55.930;2022-09-11T05:34:16;9.13;;;1.88;;
60100;SDS011;45978;53.646;55.930;2022-09-11T05:35:18;2.20;;;1.73;;
60100;SDS011;45978;53.646;55.930;2022-09-11T05:36:20;2.78;;;1.25;;
60100;SDS011;45978;53.646;55.930;2022-09-11T05:37:23;1.52;;;1.42;;
60100;SDS011;45978;53.646;55.930;2022-09-11T05:38:25;1.55;;;1.40;;
60100;SDS011;45978;53.646;55.930;2022-09-11T05:39:29;1.75;;;1.20;;
60100;SDS011;45978;53.646;55.930;2022-09-11T05:40:34;1.60;;;1.20;;
60100;SDS011;45978;53.646;55.930;2022-09-11T05:41:35;1.27;;;1.20;;
60100;SDS011;45978;53.646;55.930;2022-09-11T05:42:37;1.52;;;1.42;;
60100;SDS011;45978;53.646;55.930;2022-09-11T05:43:38;1.52;;;1.42;;
60100;SDS011;45978;53.646;55.930;2022-09-11T05:44:42;1.50;;;1.40;;
60100;SDS011;45978;53.646;55.930;2022-09-11T05:45:52;1.83;;;1.70;;
60100;SDS011;45978;53.646;55.930;2022-09-11T05:47:00;2.80;;;1.30;;
60100;SDS011;45978;53.646;55.930;2022-09-11T05:48:02;1.30;;;1.23;;
60100;SDS011;45978;53.646;55.930;2022-09-11T05:49:09;1.48;;;1.38;;
60100;SDS011;45978;53.646;55.930;2022-09-11T05:50:10;2.47;;;1.60;;
60100;SDS011;45978;53.646;55.930;2022-09-11T05:51:12;3.95;;;1.65;;
60100;SDS011;45978;53.646;55.930;2022-09-11T05:52:16;1.40;;;1.30;;
60100;SDS011;45978;53.646;55.930;2022-09-11T05:53:21;1.98;;;1.40;;
60100;SDS011;45978;53.646;55.930;2022-09-11T05:54:23;1.33;;;1.10;;
60100;SDS011;45978;53.646;55.930;2022-09-11T05:55:26;1.40;;;1.30;;
60100;SDS011;45978;53.646;55.930;2022-09-11T05:56:28;2.25;;;2.05;;
60100;SDS011;45978;53.646;55.930;2022-09-11T05:57:33;3.80;;;1.52;;
60100;SDS011;45978;53.646;55.930;2022-09-11T05:58:34;4.78;;;1.48;;
60100;SDS011;45978;53.646;55.930;2022-09-11T05:59:36;2.45;;;1.27;;
60100;SDS011;45978;53.646;55.930;2022-09-11T06:00:38;6.10;;;1.70;;
60100;SDS011;45978;53.646;55.930;2022-09-11T06:01:40;1.60;;;1.50;;
60100;SDS011;45978;53.646;55.930;2022-09-11T06:02:53;2.25;;;1.60;;
60100;SDS011;45978;53.646;55.930;2022-09-11T06:03:59;2.05;;;1.85;;
60100;SDS011;45978;53.646;55.930;2022-09-11T06:05:03;2.45;;;1.27;;
60100;SDS011;45978;53.646;55.930;2022-09-11T06:06:06;1.80;;;1.70;;
60100;SDS011;45978;53.646;55.930;2022-09-11T06:07:12;1.40;;;1.30;;
60100;SDS011;45978;53.646;55.930;2022-09-11T06:08:20;1.50;;;1.40;;
60100;SDS011;45978;53.646;55.930;2022-09-11T06:09:22;3.42;;;1.40;;
60100;SDS011;45978;53.646;55.930;2022-09-11T06:10:26;1.30;;;1.20;;
60100;SDS011;45978;53.646;55.930;2022-09-11T06:11:28;1.98;;;1.33;;
60100;SDS011;45978;53.646;55.930;2022-09-11T06:12:31;1.50;;;1.40;;
60100;SDS011;45978;53.646;55.930;2022-09-11T06:13:33;1.85;;;1.60;;
60100;SDS011;45978;53.646;55.930;2022-09-11T06:14:36;5.78;;;4.90;;
60100;SDS011;45978;53.646;55.930;2022-09-11T06:15:44;3.60;;;2.03;;
60100;SDS011;45978;53.646;55.930;2022-09-11T06:16:50;1.63;;;1.52;;
60100;SDS011;45978;53.646;55.930;2022-09-11T06:17:53;3.85;;;1.38;;
60100;SDS011;45978;53.646;55.930;2022-09-11T06:18:54;1.48;;;1.38;;
60100;SDS011;45978;53.646;55.930;2022-09-11T06:19:56;1.92;;;1.42;;
60100;SDS011;45978;53.646;55.930;2022-09-11T06:21:04;1.65;;;1.42;;
60100;SDS011;45978;53.646;55.930;2022-09-11T06:22:14;3.70;;;1.50;;
60100;SDS011;45978;53.646;55.930;2022-09-11T06:23:17;3.40;;;1.80;;
60100;SDS011;45978;53.646;55.930;2022-09-11T06:24:20;5.97;;;1.60;;
60100;SDS011;45978;53.646;55.930;2022-09-11T06:25:24;3.63;;;1.70;;
60100;SDS011;45978;53.646;55.930;2022-09-11T06:26:26;2.03;;;1.90;;
60100;SDS011;45978;53.646;55.930;2022-09-11T06:27:30;3.75;;;1.90;;
60100;SDS011;45978;53.646;55.930;2022-09-11T06:28:33;2.45;;;2.25;;
60100;SDS011;45978;53.646;55.930;2022-09-11T06:29:36;3.45;;;2.83;;
60100;SDS011;45978;53.646;55.930;2022-09-11T06:30:39;2.40;;;2.20;;
60100;SDS011;45978;53.646;55.930;2022-09-11T06:31:43;1.50;;;1.40;;
60100;SDS011;45978;53.646;55.930;2022-09-11T06:32:48;1.88;;;1.33;;
60100;SDS011;45978;53.646;55.930;2022-09-11T06:33:55;2.72;;;1.60;;
60100;SDS011;45978;53.646;55.930;2022-09-11T06:34:56;1.90;;;1.60;;
60100;SDS011;45978;53.646;55.930;2022-09-11T06:35:59;2.10;;;1.85;;
60100;SDS011;45978;53.646;55.930;2022-09-11T06:37:04;3.22;;;1.88;;
60100;SDS011;45978;53.646;55.930;2022-09-11T06:38:06;5.20;;;1.73;;
60100;SDS011;45978;53.646;55.930;2022-09-11T06:39:07;1.63;;;1.52;;
60100;SDS011;45978;53.646;55.930;2022-09-11T06:40:09;2.47;;;1.30;;
60100;SDS011;45978;53.646;55.930;2022-09-11T06:41:17;4.70;;;1.40;;
60100;SDS011;45978;53.646;55.930;2022-09-11T06:42:20;2.55;;;1.15;;
60100;SDS011;45978;53.646;55.930;2022-09-11T06:43:23;2.10;;;1.38;;
60100;SDS011;45978;53.646;55.930;2022-09-11T06:44:25;2.13;;;1.45;;
60100;SDS011;45978;53.646;55.930;2022-09-11T06:45:32;1.20;;;1.20;;
60100;SDS011;45978;53.646;55.930;2022-09-11T06:46:37;2.38;;;1.35;;
60100;SDS011;45978;53.646;55.930;2022-09-11T06:47:42;1.77;;;1.45;;
60100;SDS011;45978;53.646;55.930;2022-09-11T06:48:45;2.20;;;1.98;;
60100;SDS011;45978;53.646;55.930;2022-09-11T06:49:51;1.35;;;1.27;;
60100;SDS011;45978;53.646;55.930;2022-09-11T06:51:24;1.85;;;1.50;;
60100;SDS011;45978;53.646;55.930;2022-09-11T06:52:27;1.15;;;1.10;;
60100;SDS011;45978;53.646;55.930;2022-09-11T06:53:52;1.52;;;1.35;;
60100;SDS011;45978;53.646;55.930;2022-09-11T06:54:57;2.65;;;1.40;;
60100;SDS011;45978;53.646;55.930;2022-09-11T06:56:03;2.85;;;1.30;;
60100;SDS011;45978;53.646;55.930;2022-09-11T06:57:13;2.28;;;1.50;;
60100;SDS011;45978;53.646;55.930;2022-09-11T06:58:15;1.58;;;1.48;;
60100;SDS011;45978;53.646;55.930;2022-09-11T06:59:16;2.15;;;1.50;;
60100;SDS011;45978;53.646;55.930;2022-09-11T07:00:17;2.17;;;1.10;;
60100;SDS011;45978;53.646;55.930;2022-09-11T07:01:26;8.75;;;1.60;;
60100;SDS011;45978;53.646;55.930;2022-09-11T07:02:37;3.60;;;1.85;;